Grand View, Wisconsin
Current Conditions -  °F | °C
As of 10:32 AM on Monday 26 Jan 2015 (Local Time) from KASX Reporting Station
Haze Haze  
Wind Chill: 16°   Ceiling: 1300
Heat Index: 22°   Visibility: 6mi
Dew Point: 19°   Wind: 5mph
Humidity: 89%   Direction: 190°S
Pressure: 29.72"   Gusts: NA
Location:  46.37°N, 91.11°W
Report Text: KASX 261632Z AUTO 19004KT 6SM BR BKN013 BKN022 OVC027 M06/M07 A2972 RMK AO2 T10561072
Loading
Personal Weather Stations






























Interactive Weather Map New forecast layout! Learn more

10-Day Weather Forecast

Advertisements
Track Severe Weather on mobile